sensor_id;sensor_type;location;lat;lon;timestamp;P1;P2;P0
81998;PMS5003;71598;46.516;-122.928;2024-02-14T00:01:51;77;76;
81998;PMS5003;71598;46.516;-122.928;2024-02-14T00:04:17;79;75;
81998;PMS5003;71598;46.516;-122.928;2024-02-14T00:06:43;79;74;
81998;PMS5003;71598;46.516;-122.928;2024-02-14T00:09:09;81;78;
81998;PMS5003;71598;46.516;-122.928;2024-02-14T00:11:33;76;75;
81998;PMS5003;71598;46.516;-122.928;2024-02-14T00:14:00;81;80;
81998;PMS5003;71598;46.516;-122.928;2024-02-14T00:16:25;81;79;
81998;PMS5003;71598;46.516;-122.928;2024-02-14T00:18:51;82;81;
81998;PMS5003;71598;46.516;-122.928;2024-02-14T00:21:16;80;78;
81998;PMS5003;71598;46.516;-122.928;2024-02-14T00:23:41;86;84;
81998;PMS5003;71598;46.516;-122.928;2024-02-14T00:26:06;87;84;
81998;PMS5003;71598;46.516;-122.928;2024-02-14T00:28:32;87;85;
81998;PMS5003;71598;46.516;-122.928;2024-02-14T00:30:58;95;91;
81998;PMS5003;71598;46.516;-122.928;2024-02-14T00:33:23;86;85;
81998;PMS5003;71598;46.516;-122.928;2024-02-14T00:35:49;80;79;
81998;PMS5003;71598;46.516;-122.928;2024-02-14T00:38:15;100;92;
81998;PMS5003;71598;46.516;-122.928;2024-02-14T00:40:39;91;87;
81998;PMS5003;71598;46.516;-122.928;2024-02-14T00:43:05;89;83;
81998;PMS5003;71598;46.516;-122.928;2024-02-14T00:45:30;82;80;
81998;PMS5003;71598;46.516;-122.928;2024-02-14T00:47:55;88;85;
81998;PMS5003;71598;46.516;-122.928;2024-02-14T00:50:21;86;82;
81998;PMS5003;71598;46.516;-122.928;2024-02-14T00:52:46;92;85;
81998;PMS5003;71598;46.516;-122.928;2024-02-14T00:55:12;92;89;
81998;PMS5003;71598;46.516;-122.928;2024-02-14T00:57:37;92;91;
81998;PMS5003;71598;46.516;-122.928;2024-02-14T01:00:02;94;90;
81998;PMS5003;71598;46.516;-122.928;2024-02-14T01:02:28;81;78;
81998;PMS5003;71598;46.516;-122.928;2024-02-14T01:04:54;91;90;
81998;PMS5003;71598;46.516;-122.928;2024-02-14T01:07:20;102;96;
81998;PMS5003;71598;46.516;-122.928;2024-02-14T01:09:47;96;89;
81998;PMS5003;71598;46.516;-122.928;2024-02-14T01:12:11;95;92;
81998;PMS5003;71598;46.516;-122.928;2024-02-14T01:14:36;95;93;
81998;PMS5003;71598;46.516;-122.928;2024-02-14T01:17:02;92;88;
81998;PMS5003;71598;46.516;-122.928;2024-02-14T01:19:27;91;87;
81998;PMS5003;71598;46.516;-122.928;2024-02-14T01:21:52;82;81;
81998;PMS5003;71598;46.516;-122.928;2024-02-14T01:24:17;91;89;
81998;PMS5003;71598;46.516;-122.928;2024-02-14T01:26:43;94;90;
81998;PMS5003;71598;46.516;-122.928;2024-02-14T01:29:08;89;84;
81998;PMS5003;71598;46.516;-122.928;2024-02-14T01:31:34;95;90;
81998;PMS5003;71598;46.516;-122.928;2024-02-14T01:33:59;97;93;
81998;PMS5003;71598;46.516;-122.928;2024-02-14T01:36:25;91;90;
81998;PMS5003;71598;46.516;-122.928;2024-02-14T01:38:50;94;93;
81998;PMS5003;71598;46.516;-122.928;2024-02-14T01:41:16;92;90;
81998;PMS5003;71598;46.516;-122.928;2024-02-14T01:43:42;100;98;
81998;PMS5003;71598;46.516;-122.928;2024-02-14T01:46:08;97;94;
81998;PMS5003;71598;46.516;-122.928;2024-02-14T01:48:34;93;93;
81998;PMS5003;71598;46.516;-122.928;2024-02-14T01:50:58;102;100;
81998;PMS5003;71598;46.516;-122.928;2024-02-14T01:53:24;105;102;
81998;PMS5003;71598;46.516;-122.928;2024-02-14T01:55:49;97;94;
81998;PMS5003;71598;46.516;-122.928;2024-02-14T01:58:15;87;86;
81998;PMS5003;71598;46.516;-122.928;2024-02-14T02:00:40;87;86;
81998;PMS5003;71598;46.516;-122.928;2024-02-14T02:03:06;104;100;
81998;PMS5003;71598;46.516;-122.928;2024-02-14T02:05:31;93;88;
81998;PMS5003;71598;46.516;-122.928;2024-02-14T02:07:56;97;94;
81998;PMS5003;71598;46.516;-122.928;2024-02-14T02:10:24;95;93;
81998;PMS5003;71598;46.516;-122.928;2024-02-14T02:12:48;101;98;
81998;PMS5003;71598;46.516;-122.928;2024-02-14T02:15:13;100;98;
81998;PMS5003;71598;46.516;-122.928;2024-02-14T02:17:39;112;107;
81998;PMS5003;71598;46.516;-122.928;2024-02-14T02:20:05;103;100;
81998;PMS5003;71598;46.516;-122.928;2024-02-14T02:22:30;111;106;
81998;PMS5003;71598;46.516;-122.928;2024-02-14T02:24:55;106;103;
81998;PMS5003;71598;46.516;-122.928;2024-02-14T02:27:20;102;100;
81998;PMS5003;71598;46.516;-122.928;2024-02-14T02:29:45;101;98;
81998;PMS5003;71598;46.516;-122.928;2024-02-14T02:32:12;97;93;
81998;PMS5003;71598;46.516;-122.928;2024-02-14T02:34:36;102;95;
81998;PMS5003;71598;46.516;-122.928;2024-02-14T02:37:02;103;96;
81998;PMS5003;71598;46.516;-122.928;2024-02-14T02:39:28;106;102;
81998;PMS5003;71598;46.516;-122.928;2024-02-14T02:41:53;96;94;
81998;PMS5003;71598;46.516;-122.928;2024-02-14T02:44:18;102;100;
81998;PMS5003;71598;46.516;-122.928;2024-02-14T02:46:44;99;97;
81998;PMS5003;71598;46.516;-122.928;2024-02-14T02:49:09;99;96;
81998;PMS5003;71598;46.516;-122.928;2024-02-14T02:51:37;93;89;
81998;PMS5003;71598;46.516;-122.928;2024-02-14T02:54:01;105;102;
81998;PMS5003;71598;46.516;-122.928;2024-02-14T02:56:26;96;94;
81998;PMS5003;71598;46.516;-122.928;2024-02-14T02:58:52;95;92;
81998;PMS5003;71598;46.516;-122.928;2024-02-14T03:01:17;93;93;
81998;PMS5003;71598;46.516;-122.928;2024-02-14T03:03:42;96;94;
81998;PMS5003;71598;46.516;-122.928;2024-02-14T03:06:08;92;90;
81998;PMS5003;71598;46.516;-122.928;2024-02-14T03:08:34;88;84;
81998;PMS5003;71598;46.516;-122.928;2024-02-14T03:11:03;89;86;
81998;PMS5003;71598;46.516;-122.928;2024-02-14T03:13:25;88;87;
81998;PMS5003;71598;46.516;-122.928;2024-02-14T03:15:50;90;89;
81998;PMS5003;71598;46.516;-122.928;2024-02-14T03:18:16;93;92;
81998;PMS5003;71598;46.516;-122.928;2024-02-14T03:20:41;86;86;
81998;PMS5003;71598;46.516;-122.928;2024-02-14T03:23:07;87;84;
81998;PMS5003;71598;46.516;-122.928;2024-02-14T03:25:33;92;86;
81998;PMS5003;71598;46.516;-122.928;2024-02-14T03:27:58;79;79;
81998;PMS5003;71598;46.516;-122.928;2024-02-14T03:30:24;94;90;
81998;PMS5003;71598;46.516;-122.928;2024-02-14T03:32:49;84;83;
81998;PMS5003;71598;46.516;-122.928;2024-02-14T03:35:15;85;82;
81998;PMS5003;71598;46.516;-122.928;2024-02-14T03:37:41;82;79;
81998;PMS5003;71598;46.516;-122.928;2024-02-14T03:40:06;82;80;
81998;PMS5003;71598;46.516;-122.928;2024-02-14T03:42:32;78;76;
81998;PMS5003;71598;46.516;-122.928;2024-02-14T03:44:57;79;76;
81998;PMS5003;71598;46.516;-122.928;2024-02-14T03:47:22;78;76;
81998;PMS5003;71598;46.516;-122.928;2024-02-14T03:49:48;80;79;
81998;PMS5003;71598;46.516;-122.928;2024-02-14T03:52:13;75;73;
81998;PMS5003;71598;46.516;-122.928;2024-02-14T03:54:38;81;80;
81998;PMS5003;71598;46.516;-122.928;2024-02-14T03:57:04;74;73;
81998;PMS5003;71598;46.516;-122.928;2024-02-14T03:59:29;87;79;
81998;PMS5003;71598;46.516;-122.928;2024-02-14T04:01:55;75;73;
81998;PMS5003;71598;46.516;-122.928;2024-02-14T04:04:21;73;73;
81998;PMS5003;71598;46.516;-122.928;2024-02-14T04:06:46;74;70;
81998;PMS5003;71598;46.516;-122.928;2024-02-14T04:09:11;76;75;
81998;PMS5003;71598;46.516;-122.928;2024-02-14T04:11:38;70;69;
81998;PMS5003;71598;46.516;-122.928;2024-02-14T04:14:03;73;71;
81998;PMS5003;71598;46.516;-122.928;2024-02-14T04:16:28;67;66;
81998;PMS5003;71598;46.516;-122.928;2024-02-14T04:18:53;66;64;
81998;PMS5003;71598;46.516;-122.928;2024-02-14T04:21:19;76;75;
81998;PMS5003;71598;46.516;-122.928;2024-02-14T04:23:44;72;70;
81998;PMS5003;71598;46.516;-122.928;2024-02-14T04:26:09;70;70;
81998;PMS5003;71598;46.516;-122.928;2024-02-14T04:28:35;72;69;
81998;PMS5003;71598;46.516;-122.928;2024-02-14T04:31:01;75;71;
81998;PMS5003;71598;46.516;-122.928;2024-02-14T04:33:26;75;73;
81998;PMS5003;71598;46.516;-122.928;2024-02-14T04:35:52;72;69;
81998;PMS5003;71598;46.516;-122.928;2024-02-14T04:38:17;61;61;
81998;PMS5003;71598;46.516;-122.928;2024-02-14T04:40:43;71;67;
81998;PMS5003;71598;46.516;-122.928;2024-02-14T04:43:09;69;67;
81998;PMS5003;71598;46.516;-122.928;2024-02-14T04:45:34;65;65;
81998;PMS5003;71598;46.516;-122.928;2024-02-14T04:48:00;70;67;
81998;PMS5003;71598;46.516;-122.928;2024-02-14T04:50:25;65;65;
81998;PMS5003;71598;46.516;-122.928;2024-02-14T04:52:51;63;63;
81998;PMS5003;71598;46.516;-122.928;2024-02-14T04:55:16;62;60;
81998;PMS5003;71598;46.516;-122.928;2024-02-14T04:57:41;64;64;
81998;PMS5003;71598;46.516;-122.928;2024-02-14T05:00:07;64;63;
81998;PMS5003;71598;46.516;-122.928;2024-02-14T05:02:32;69;67;
81998;PMS5003;71598;46.516;-122.928;2024-02-14T05:04:58;66;65;
81998;PMS5003;71598;46.516;-122.928;2024-02-14T05:07:23;63;61;
81998;PMS5003;71598;46.516;-122.928;2024-02-14T05:09:49;69;68;
81998;PMS5003;71598;46.516;-122.928;2024-02-14T05:12:17;68;67;
81998;PMS5003;71598;46.516;-122.928;2024-02-14T05:14:41;67;63;
81998;PMS5003;71598;46.516;-122.928;2024-02-14T05:17:07;66;65;
81998;PMS5003;71598;46.516;-122.928;2024-02-14T05:19:31;63;63;
81998;PMS5003;71598;46.516;-122.928;2024-02-14T05:21:57;58;58;
81998;PMS5003;71598;46.516;-122.928;2024-02-14T05:24:22;56;55;
81998;PMS5003;71598;46.516;-122.928;2024-02-14T05:26:47;58;57;
81998;PMS5003;71598;46.516;-122.928;2024-02-14T05:29:13;62;61;
81998;PMS5003;71598;46.516;-122.928;2024-02-14T05:31:43;58;55;
81998;PMS5003;71598;46.516;-122.928;2024-02-14T05:34:05;59;58;
81998;PMS5003;71598;46.516;-122.928;2024-02-14T05:36:31;53;52;
81998;PMS5003;71598;46.516;-122.928;2024-02-14T05:38:56;56;55;
81998;PMS5003;71598;46.516;-122.928;2024-02-14T05:41:21;55;54;
81998;PMS5003;71598;46.516;-122.928;2024-02-14T05:43:46;57;55;
81998;PMS5003;71598;46.516;-122.928;2024-02-14T05:46:12;59;56;
81998;PMS5003;71598;46.516;-122.928;2024-02-14T05:48:38;50;50;
81998;PMS5003;71598;46.516;-122.928;2024-02-14T05:51:03;56;55;
81998;PMS5003;71598;46.516;-122.928;2024-02-14T05:53:29;62;60;
81998;PMS5003;71598;46.516;-122.928;2024-02-14T05:55:54;57;56;
81998;PMS5003;71598;46.516;-122.928;2024-02-14T05:58:19;63;59;
81998;PMS5003;71598;46.516;-122.928;2024-02-14T06:00:46;65;63;
81998;PMS5003;71598;46.516;-122.928;2024-02-14T06:03:11;70;66;
81998;PMS5003;71598;46.516;-122.928;2024-02-14T06:05:36;63;62;
81998;PMS5003;71598;46.516;-122.928;2024-02-14T06:08:01;65;62;
81998;PMS5003;71598;46.516;-122.928;2024-02-14T06:10:27;61;59;
81998;PMS5003;71598;46.516;-122.928;2024-02-14T06:12:54;66;63;
81998;PMS5003;71598;46.516;-122.928;2024-02-14T06:15:19;67;65;
81998;PMS5003;71598;46.516;-122.928;2024-02-14T06:17:45;71;68;
81998;PMS5003;71598;46.516;-122.928;2024-02-14T06:20:10;62;62;
81998;PMS5003;71598;46.516;-122.928;2024-02-14T06:22:35;71;68;
81998;PMS5003;71598;46.516;-122.928;2024-02-14T06:25:00;68;66;
81998;PMS5003;71598;46.516;-122.928;2024-02-14T06:27:25;76;75;
81998;PMS5003;71598;46.516;-122.928;2024-02-14T06:29:51;75;72;
81998;PMS5003;71598;46.516;-122.928;2024-02-14T06:32:16;79;75;
81998;PMS5003;71598;46.516;-122.928;2024-02-14T06:34:41;86;82;
81998;PMS5003;71598;46.516;-122.928;2024-02-14T06:37:06;92;90;
81998;PMS5003;71598;46.516;-122.928;2024-02-14T06:39:32;93;89;
81998;PMS5003;71598;46.516;-122.928;2024-02-14T06:41:57;116;109;
81998;PMS5003;71598;46.516;-122.928;2024-02-14T06:44:23;95;93;
81998;PMS5003;71598;46.516;-122.928;2024-02-14T06:46:48;108;106;
81998;PMS5003;71598;46.516;-122.928;2024-02-14T06:49:15;104;99;
81998;PMS5003;71598;46.516;-122.928;2024-02-14T06:51:40;116;112;
81998;PMS5003;71598;46.516;-122.928;2024-02-14T06:54:05;120;116;
81998;PMS5003;71598;46.516;-122.928;2024-02-14T06:56:32;116;115;
81998;PMS5003;71598;46.516;-122.928;2024-02-14T06:58:56;155;152;
81998;PMS5003;71598;46.516;-122.928;2024-02-14T07:01:21;133;129;
81998;PMS5003;71598;46.516;-122.928;2024-02-14T07:03:47;131;128;
81998;PMS5003;71598;46.516;-122.928;2024-02-14T07:06:12;127;123;
81998;PMS5003;71598;46.516;-122.928;2024-02-14T07:08:40;126;122;
81998;PMS5003;71598;46.516;-122.928;2024-02-14T07:11:04;132;127;
81998;PMS5003;71598;46.516;-122.928;2024-02-14T07:13:29;138;133;
81998;PMS5003;71598;46.516;-122.928;2024-02-14T07:15:53;150;141;
81998;PMS5003;71598;46.516;-122.928;2024-02-14T07:18:19;160;154;
81998;PMS5003;71598;46.516;-122.928;2024-02-14T07:20:44;202;195;
81998;PMS5003;71598;46.516;-122.928;2024-02-14T07:23:10;230;216;
81998;PMS5003;71598;46.516;-122.928;2024-02-14T07:25:34;391;375;
81998;PMS5003;71598;46.516;-122.928;2024-02-14T07:27:59;414;391;
81998;PMS5003;71598;46.516;-122.928;2024-02-14T07:30:25;454;430;
81998;PMS5003;71598;46.516;-122.928;2024-02-14T07:32:51;434;412;
81998;PMS5003;71598;46.516;-122.928;2024-02-14T07:35:17;478;452;
81998;PMS5003;71598;46.516;-122.928;2024-02-14T07:37:44;511;485;
81998;PMS5003;71598;46.516;-122.928;2024-02-14T07:40:08;522;497;
81998;PMS5003;71598;46.516;-122.928;2024-02-14T07:42:33;542;523;
81998;PMS5003;71598;46.516;-122.928;2024-02-14T07:44:59;557;524;
81998;PMS5003;71598;46.516;-122.928;2024-02-14T07:47:25;615;577;
81998;PMS5003;71598;46.516;-122.928;2024-02-14T07:49:50;664;630;
81998;PMS5003;71598;46.516;-122.928;2024-02-14T07:52:16;679;645;
81998;PMS5003;71598;46.516;-122.928;2024-02-14T07:54:41;721;674;
81998;PMS5003;71598;46.516;-122.928;2024-02-14T07:57:06;748;706;
81998;PMS5003;71598;46.516;-122.928;2024-02-14T07:59:32;777;728;
81998;PMS5003;71598;46.516;-122.928;2024-02-14T08:01:57;770;730;
81998;PMS5003;71598;46.516;-122.928;2024-02-14T08:04:22;829;766;
81998;PMS5003;71598;46.516;-122.928;2024-02-14T08:06:48;851;789;
81998;PMS5003;71598;46.516;-122.928;2024-02-14T08:09:13;868;799;
81998;PMS5003;71598;46.516;-122.928;2024-02-14T08:11:38;949;877;
81998;PMS5003;71598;46.516;-122.928;2024-02-14T08:14:05;995;907;
81998;PMS5003;71598;46.516;-122.928;2024-02-14T08:16:29;1034;955;
81998;PMS5003;71598;46.516;-122.928;2024-02-14T08:18:56;1106;1001;
81998;PMS5003;71598;46.516;-122.928;2024-02-14T08:21:20;1096;1014;
81998;PMS5003;71598;46.516;-122.928;2024-02-14T08:23:45;1080;1001;
81998;PMS5003;71598;46.516;-122.928;2024-02-14T08:26:11;1113;1008;
81998;PMS5003;71598;46.516;-122.928;2024-02-14T08:28:36;1171;1074;
81998;PMS5003;71598;46.516;-122.928;2024-02-14T08:31:01;1136;1058;
81998;PMS5003;71598;46.516;-122.928;2024-02-14T08:33:26;1158;1056;
81998;PMS5003;71598;46.516;-122.928;2024-02-14T08:35:51;1195;1095;
81998;PMS5003;71598;46.516;-122.928;2024-02-14T08:38:16;1165;1056;
81998;PMS5003;71598;46.516;-122.928;2024-02-14T08:40:42;1230;1119;
81998;PMS5003;71598;46.516;-122.928;2024-02-14T08:43:07;1263;1151;
81998;PMS5003;71598;46.516;-122.928;2024-02-14T08:45:32;1196;1113;
81998;PMS5003;71598;46.516;-122.928;2024-02-14T08:47:58;1297;1183;
81998;PMS5003;71598;46.516;-122.928;2024-02-14T08:50:23;1285;1179;
81998;PMS5003;71598;46.516;-122.928;2024-02-14T08:52:48;1271;1160;
81998;PMS5003;71598;46.516;-122.928;2024-02-14T08:55:14;1277;1181;
81998;PMS5003;71598;46.516;-122.928;2024-02-14T08:57:39;1235;1138;
81998;PMS5003;71598;46.516;-122.928;2024-02-14T09:00:05;1272;1149;
81998;PMS5003;71598;46.516;-122.928;2024-02-14T09:02:29;1240;1128;
81998;PMS5003;71598;46.516;-122.928;2024-02-14T09:04:54;1281;1180;
81998;PMS5003;71598;46.516;-122.928;2024-02-14T09:07:20;1256;1160;
81998;PMS5003;71598;46.516;-122.928;2024-02-14T09:09:45;1245;1133;
81998;PMS5003;71598;46.516;-122.928;2024-02-14T09:12:10;1225;1130;
81998;PMS5003;71598;46.516;-122.928;2024-02-14T09:14:36;1202;1105;
81998;PMS5003;71598;46.516;-122.928;2024-02-14T09:17:00;1179;1085;
81998;PMS5003;71598;46.516;-122.928;2024-02-14T09:19:27;1190;1089;
81998;PMS5003;71598;46.516;-122.928;2024-02-14T09:21:52;1196;1097;
81998;PMS5003;71598;46.516;-122.928;2024-02-14T09:24:17;1185;1089;
81998;PMS5003;71598;46.516;-122.928;2024-02-14T09:26:43;1133;1047;
81998;PMS5003;71598;46.516;-122.928;2024-02-14T09:29:09;1173;1084;
81998;PMS5003;71598;46.516;-122.928;2024-02-14T09:31:34;1129;1049;
81998;PMS5003;71598;46.516;-122.928;2024-02-14T09:34:00;1108;1011;
81998;PMS5003;71598;46.516;-122.928;2024-02-14T09:36:25;1122;1035;
81998;PMS5003;71598;46.516;-122.928;2024-02-14T09:38:51;1078;991;
81998;PMS5003;71598;46.516;-122.928;2024-02-14T09:41:18;1095;994;
81998;PMS5003;71598;46.516;-122.928;2024-02-14T09:43:43;1086;983;
81998;PMS5003;71598;46.516;-122.928;2024-02-14T09:46:07;1048;975;
81998;PMS5003;71598;46.516;-122.928;2024-02-14T09:48:32;1017;942;
81998;PMS5003;71598;46.516;-122.928;2024-02-14T09:50:57;991;933;
81998;PMS5003;71598;46.516;-122.928;2024-02-14T09:53:23;1007;931;
81998;PMS5003;71598;46.516;-122.928;2024-02-14T09:55:48;992;930;
81998;PMS5003;71598;46.516;-122.928;2024-02-14T09:58:14;959;895;
81998;PMS5003;71598;46.516;-122.928;2024-02-14T10:00:39;971;905;
81998;PMS5003;71598;46.516;-122.928;2024-02-14T10:03:05;926;870;
81998;PMS5003;71598;46.516;-122.928;2024-02-14T10:05:31;947;874;
81998;PMS5003;71598;46.516;-122.928;2024-02-14T10:07:56;946;865;
81998;PMS5003;71598;46.516;-122.928;2024-02-14T10:10:21;917;868;
81998;PMS5003;71598;46.516;-122.928;2024-02-14T10:12:46;938;873;
81998;PMS5003;71598;46.516;-122.928;2024-02-14T10:15:12;931;867;
81998;PMS5003;71598;46.516;-122.928;2024-02-14T10:17:38;935;879;
81998;PMS5003;71598;46.516;-122.928;2024-02-14T10:20:05;957;896;
81998;PMS5003;71598;46.516;-122.928;2024-02-14T10:22:32;1011;907;
81998;PMS5003;71598;46.516;-122.928;2024-02-14T10:24:54;1001;929;
81998;PMS5003;71598;46.516;-122.928;2024-02-14T10:27:20;994;910;
81998;PMS5003;71598;46.516;-122.928;2024-02-14T10:29:46;998;933;
81998;PMS5003;71598;46.516;-122.928;2024-02-14T10:32:14;921;882;
81998;PMS5003;71598;46.516;-122.928;2024-02-14T10:34:37;927;861;
81998;PMS5003;71598;46.516;-122.928;2024-02-14T10:37:02;928;869;
81998;PMS5003;71598;46.516;-122.928;2024-02-14T10:39:27;886;835;
81998;PMS5003;71598;46.516;-122.928;2024-02-14T10:41:52;937;852;
81998;PMS5003;71598;46.516;-122.928;2024-02-14T10:44:18;924;840;
81998;PMS5003;71598;46.516;-122.928;2024-02-14T10:46:43;895;847;
81998;PMS5003;71598;46.516;-122.928;2024-02-14T10:49:09;916;851;
81998;PMS5003;71598;46.516;-122.928;2024-02-14T10:51:35;895;840;
81998;PMS5003;71598;46.516;-122.928;2024-02-14T10:54:00;883;833;
81998;PMS5003;71598;46.516;-122.928;2024-02-14T10:56:26;878;830;
81998;PMS5003;71598;46.516;-122.928;2024-02-14T10:58:51;885;829;
81998;PMS5003;71598;46.516;-122.928;2024-02-14T11:01:16;859;796;
81998;PMS5003;71598;46.516;-122.928;2024-02-14T11:03:41;860;792;
81998;PMS5003;71598;46.516;-122.928;2024-02-14T11:06:06;860;811;
81998;PMS5003;71598;46.516;-122.928;2024-02-14T11:08:32;825;780;
81998;PMS5003;71598;46.516;-122.928;2024-02-14T11:10:58;808;757;
81998;PMS5003;71598;46.516;-122.928;2024-02-14T11:13:25;780;745;
81998;PMS5003;71598;46.516;-122.928;2024-02-14T11:15:51;768;707;
81998;PMS5003;71598;46.516;-122.928;2024-02-14T11:18:13;753;713;
81998;PMS5003;71598;46.516;-122.928;2024-02-14T11:20:40;763;718;
81998;PMS5003;71598;46.516;-122.928;2024-02-14T11:23:04;739;696;
81998;PMS5003;71598;46.516;-122.928;2024-02-14T11:25:30;730;692;
81998;PMS5003;71598;46.516;-122.928;2024-02-14T11:27:55;730;687;
81998;PMS5003;71598;46.516;-122.928;2024-02-14T11:30:36;730;672;
81998;PMS5003;71598;46.516;-122.928;2024-02-14T11:32:46;705;654;
81998;PMS5003;71598;46.516;-122.928;2024-02-14T11:35:12;694;658;
81998;PMS5003;71598;46.516;-122.928;2024-02-14T11:37:37;662;622;
81998;PMS5003;71598;46.516;-122.928;2024-02-14T11:40:03;666;632;
81998;PMS5003;71598;46.516;-122.928;2024-02-14T11:42:28;657;621;
81998;PMS5003;71598;46.516;-122.928;2024-02-14T11:44:53;661;618;
81998;PMS5003;71598;46.516;-122.928;2024-02-14T11:47:19;652;618;
81998;PMS5003;71598;46.516;-122.928;2024-02-14T11:49:44;631;594;
81998;PMS5003;71598;46.516;-122.928;2024-02-14T11:52:09;618;577;
81998;PMS5003;71598;46.516;-122.928;2024-02-14T11:54:35;593;566;
81998;PMS5003;71598;46.516;-122.928;2024-02-14T11:57:00;571;545;
81998;PMS5003;71598;46.516;-122.928;2024-02-14T11:59:26;591;555;
81998;PMS5003;71598;46.516;-122.928;2024-02-14T12:01:51;560;537;
81998;PMS5003;71598;46.516;-122.928;2024-02-14T12:04:16;566;533;
81998;PMS5003;71598;46.516;-122.928;2024-02-14T12:06:42;575;534;
81998;PMS5003;71598;46.516;-122.928;2024-02-14T12:09:07;570;544;
81998;PMS5003;71598;46.516;-122.928;2024-02-14T12:11:32;533;494;
81998;PMS5003;71598;46.516;-122.928;2024-02-14T12:13:57;538;499;
81998;PMS5003;71598;46.516;-122.928;2024-02-14T12:16:23;506;473;
81998;PMS5003;71598;46.516;-122.928;2024-02-14T12:18:49;486;457;
81998;PMS5003;71598;46.516;-122.928;2024-02-14T12:21:16;469;450;
81998;PMS5003;71598;46.516;-122.928;2024-02-14T12:23:39;458;437;
81998;PMS5003;71598;46.516;-122.928;2024-02-14T12:26:04;445;423;
81998;PMS5003;71598;46.516;-122.928;2024-02-14T12:28:30;456;434;
81998;PMS5003;71598;46.516;-122.928;2024-02-14T12:30:56;445;425;
81998;PMS5003;71598;46.516;-122.928;2024-02-14T12:33:21;437;414;
81998;PMS5003;71598;46.516;-122.928;2024-02-14T12:35:48;428;408;
81998;PMS5003;71598;46.516;-122.928;2024-02-14T12:38:14;412;395;
81998;PMS5003;71598;46.516;-122.928;2024-02-14T12:40:38;401;391;
81998;PMS5003;71598;46.516;-122.928;2024-02-14T12:43:04;403;387;
81998;PMS5003;71598;46.516;-122.928;2024-02-14T12:45:29;393;375;
81998;PMS5003;71598;46.516;-122.928;2024-02-14T12:47:55;391;363;
81998;PMS5003;71598;46.516;-122.928;2024-02-14T12:50:20;403;376;
81998;PMS5003;71598;46.516;-122.928;2024-02-14T12:52:46;400;386;
81998;PMS5003;71598;46.516;-122.928;2024-02-14T12:55:12;385;368;
81998;PMS5003;71598;46.516;-122.928;2024-02-14T12:57:37;384;369;
81998;PMS5003;71598;46.516;-122.928;2024-02-14T13:00:03;377;354;
81998;PMS5003;71598;46.516;-122.928;2024-02-14T13:02:28;360;340;
81998;PMS5003;71598;46.516;-122.928;2024-02-14T13:04:53;370;347;
81998;PMS5003;71598;46.516;-122.928;2024-02-14T13:07:19;352;335;
81998;PMS5003;71598;46.516;-122.928;2024-02-14T13:09:44;358;347;
81998;PMS5003;71598;46.516;-122.928;2024-02-14T13:12:10;343;332;
81998;PMS5003;71598;46.516;-122.928;2024-02-14T13:14:35;343;324;
81998;PMS5003;71598;46.516;-122.928;2024-02-14T13:17:02;335;323;
81998;PMS5003;71598;46.516;-122.928;2024-02-14T13:19:26;323;310;
81998;PMS5003;71598;46.516;-122.928;2024-02-14T13:21:52;327;315;
81998;PMS5003;71598;46.516;-122.928;2024-02-14T13:24:17;332;322;
81998;PMS5003;71598;46.516;-122.928;2024-02-14T13:26:43;334;315;
81998;PMS5003;71598;46.516;-122.928;2024-02-14T13:29:08;329;307;
81998;PMS5003;71598;46.516;-122.928;2024-02-14T13:31:33;310;291;
81998;PMS5003;71598;46.516;-122.928;2024-02-14T13:33:59;309;293;
81998;PMS5003;71598;46.516;-122.928;2024-02-14T13:36:25;290;279;
81998;PMS5003;71598;46.516;-122.928;2024-02-14T13:38:49;288;278;
81998;PMS5003;71598;46.516;-122.928;2024-02-14T13:41:15;294;278;
81998;PMS5003;71598;46.516;-122.928;2024-02-14T13:43:40;303;288;
81998;PMS5003;71598;46.516;-122.928;2024-02-14T13:46:06;276;262;
81998;PMS5003;71598;46.516;-122.928;2024-02-14T13:48:31;289;275;
81998;PMS5003;71598;46.516;-122.928;2024-02-14T13:50:56;274;266;
81998;PMS5003;71598;46.516;-122.928;2024-02-14T13:53:22;272;260;
81998;PMS5003;71598;46.516;-122.928;2024-02-14T13:55:47;262;256;
81998;PMS5003;71598;46.516;-122.928;2024-02-14T13:58:12;262;244;
81998;PMS5003;71598;46.516;-122.928;2024-02-14T14:00:38;240;228;
81998;PMS5003;71598;46.516;-122.928;2024-02-14T14:03:03;245;235;
81998;PMS5003;71598;46.516;-122.928;2024-02-14T14:05:28;236;224;
81998;PMS5003;71598;46.516;-122.928;2024-02-14T14:07:54;228;222;
81998;PMS5003;71598;46.516;-122.928;2024-02-14T14:10:19;227;213;
81998;PMS5003;71598;46.516;-122.928;2024-02-14T14:12:44;217;208;
81998;PMS5003;71598;46.516;-122.928;2024-02-14T14:15:10;223;219;
81998;PMS5003;71598;46.516;-122.928;2024-02-14T14:17:35;216;207;
81998;PMS5003;71598;46.516;-122.928;2024-02-14T14:20:00;199;196;
81998;PMS5003;71598;46.516;-122.928;2024-02-14T14:22:27;198;191;
81998;PMS5003;71598;46.516;-122.928;2024-02-14T14:24:51;196;185;
81998;PMS5003;71598;46.516;-122.928;2024-02-14T14:27:17;201;191;
81998;PMS5003;71598;46.516;-122.928;2024-02-14T14:29:43;181;178;
81998;PMS5003;71598;46.516;-122.928;2024-02-14T14:32:08;185;179;
81998;PMS5003;71598;46.516;-122.928;2024-02-14T14:34:33;187;179;
81998;PMS5003;71598;46.516;-122.928;2024-02-14T14:36:58;172;168;
81998;PMS5003;71598;46.516;-122.928;2024-02-14T14:39:23;182;174;
81998;PMS5003;71598;46.516;-122.928;2024-02-14T14:41:49;172;162;
81998;PMS5003;71598;46.516;-122.928;2024-02-14T14:44:15;161;158;
81998;PMS5003;71598;46.516;-122.928;2024-02-14T14:46:40;164;157;
81998;PMS5003;71598;46.516;-122.928;2024-02-14T14:49:05;160;152;
81998;PMS5003;71598;46.516;-122.928;2024-02-14T14:51:31;159;152;
81998;PMS5003;71598;46.516;-122.928;2024-02-14T14:53:57;145;138;
81998;PMS5003;71598;46.516;-122.928;2024-02-14T14:56:22;142;140;
81998;PMS5003;71598;46.516;-122.928;2024-02-14T14:58:48;139;136;